sensor_id;sensor_type;location;lat;lon;timestamp;temperature;humidity
35746;DHT22;21870;42.812;74.628;2023-05-02T00:00:46;12.40;98.90
35746;DHT22;21870;42.812;74.628;2023-05-02T00:03:12;12.40;99.00
35746;DHT22;21870;42.812;74.628;2023-05-02T00:05:38;12.30;98.30
35746;DHT22;21870;42.812;74.628;2023-05-02T00:08:05;12.30;99.00
35746;DHT22;21870;42.812;74.628;2023-05-02T00:10:31;12.20;99.90
35746;DHT22;21870;42.812;74.628;2023-05-02T00:12:57;12.20;99.90
35746;DHT22;21870;42.812;74.628;2023-05-02T00:15:23;12.20;99.90
35746;DHT22;21870;42.812;74.628;2023-05-02T00:17:50;12.20;99.90
35746;DHT22;21870;42.812;74.628;2023-05-02T00:20:16;12.20;99.90
35746;DHT22;21870;42.812;74.628;2023-05-02T00:22:42;12.10;99.90
35746;DHT22;21870;42.812;74.628;2023-05-02T00:25:08;12.20;99.90
35746;DHT22;21870;42.812;74.628;2023-05-02T00:27:34;12.20;99.90
35746;DHT22;21870;42.812;74.628;2023-05-02T00:30:01;12.20;99.90
35746;DHT22;21870;42.812;74.628;2023-05-02T00:32:27;12.20;99.90
35746;DHT22;21870;42.812;74.628;2023-05-02T00:34:53;12.20;99.90
35746;DHT22;21870;42.812;74.628;2023-05-02T00:37:20;12.10;99.90
35746;DHT22;21870;42.812;74.628;2023-05-02T00:39:46;12.20;99.90
35746;DHT22;21870;42.812;74.628;2023-05-02T00:42:12;12.20;99.90
35746;DHT22;21870;42.812;74.628;2023-05-02T00:44:38;12.20;99.90
35746;DHT22;21870;42.812;74.628;2023-05-02T00:47:05;12.20;99.90
35746;DHT22;21870;42.812;74.628;2023-05-02T00:49:31;12.20;99.90
35746;DHT22;21870;42.812;74.628;2023-05-02T00:51:57;12.30;99.90
35746;DHT22;21870;42.812;74.628;2023-05-02T00:54:23;12.20;99.90
35746;DHT22;21870;42.812;74.628;2023-05-02T00:56:49;12.20;99.90
35746;DHT22;21870;42.812;74.628;2023-05-02T00:59:16;12.20;99.90
35746;DHT22;21870;42.812;74.628;2023-05-02T01:09:56;12.10;99.90
35746;DHT22;21870;42.812;74.628;2023-05-02T01:12:45;12.00;99.90
35746;DHT22;21870;42.812;74.628;2023-05-02T01:15:19;12.00;99.90
35746;DHT22;21870;42.812;74.628;2023-05-02T01:17:46;12.10;99.90
35746;DHT22;21870;42.812;74.628;2023-05-02T01:20:17;12.10;99.90
35746;DHT22;21870;42.812;74.628;2023-05-02T01:22:46;12.10;99.30
35746;DHT22;21870;42.812;74.628;2023-05-02T01:30:42;12.20;97.90
35746;DHT22;21870;42.812;74.628;2023-05-02T01:33:10;12.20;97.10
35746;DHT22;21870;42.812;74.628;2023-05-02T01:35:39;12.20;96.60
35746;DHT22;21870;42.812;74.628;2023-05-02T01:38:06;12.10;96.30
35746;DHT22;21870;42.812;74.628;2023-05-02T01:40:33;12.10;95.90
35746;DHT22;21870;42.812;74.628;2023-05-02T01:43:02;12.00;96.10
35746;DHT22;21870;42.812;74.628;2023-05-02T01:45:30;12.00;95.80
35746;DHT22;21870;42.812;74.628;2023-05-02T01:47:59;12.10;95.90
35746;DHT22;21870;42.812;74.628;2023-05-02T01:50:26;12.10;96.00
35746;DHT22;21870;42.812;74.628;2023-05-02T01:52:54;12.10;96.60
35746;DHT22;21870;42.812;74.628;2023-05-02T01:55:21;12.10;96.60
35746;DHT22;21870;42.812;74.628;2023-05-02T01:57:50;12.10;96.60
35746;DHT22;21870;42.812;74.628;2023-05-02T02:00:21;12.10;96.60
35746;DHT22;21870;42.812;74.628;2023-05-02T02:02:50;12.20;97.00
35746;DHT22;21870;42.812;74.628;2023-05-02T02:05:19;12.20;96.50
35746;DHT22;21870;42.812;74.628;2023-05-02T02:07:46;12.30;96.80
35746;DHT22;21870;42.812;74.628;2023-05-02T02:10:12;12.20;96.60
35746;DHT22;21870;42.812;74.628;2023-05-02T02:12:41;12.30;97.00
35746;DHT22;21870;42.812;74.628;2023-05-02T02:17:42;12.40;95.50
35746;DHT22;21870;42.812;74.628;2023-05-02T02:20:12;12.50;95.30
35746;DHT22;21870;42.812;74.628;2023-05-02T02:22:41;12.60;95.50
35746;DHT22;21870;42.812;74.628;2023-05-02T02:25:11;12.70;95.60
35746;DHT22;21870;42.812;74.628;2023-05-02T02:27:37;12.90;95.50
35746;DHT22;21870;42.812;74.628;2023-05-02T02:30:05;13.00;96.20
35746;DHT22;21870;42.812;74.628;2023-05-02T02:32:31;13.20;96.20
35746;DHT22;21870;42.812;74.628;2023-05-02T02:34:58;13.50;96.70
35746;DHT22;21870;42.812;74.628;2023-05-02T02:37:34;13.60;96.00
35746;DHT22;21870;42.812;74.628;2023-05-02T02:40:22;13.60;94.90
35746;DHT22;21870;42.812;74.628;2023-05-02T02:43:07;13.60;95.30
35746;DHT22;21870;42.812;74.628;2023-05-02T02:51:38;13.90;94.40
35746;DHT22;21870;42.812;74.628;2023-05-02T02:56:39;14.40;95.00
35746;DHT22;21870;42.812;74.628;2023-05-02T03:01:42;14.80;92.90
35746;DHT22;21870;42.812;74.628;2023-05-02T03:04:12;14.90;91.70
35746;DHT22;21870;42.812;74.628;2023-05-02T03:06:40;15.10;91.10
35746;DHT22;21870;42.812;74.628;2023-05-02T03:09:14;15.30;91.20
35746;DHT22;21870;42.812;74.628;2023-05-02T03:11:42;15.20;91.00
35746;DHT22;21870;42.812;74.628;2023-05-02T03:14:10;15.40;90.90
35746;DHT22;21870;42.812;74.628;2023-05-02T03:16:40;15.40;90.90
35746;DHT22;21870;42.812;74.628;2023-05-02T03:19:06;15.60;90.60
35746;DHT22;21870;42.812;74.628;2023-05-02T03:21:33;15.70;90.60
35746;DHT22;21870;42.812;74.628;2023-05-02T03:24:01;15.80;90.80
35746;DHT22;21870;42.812;74.628;2023-05-02T03:26:28;15.90;90.90
35746;DHT22;21870;42.812;74.628;2023-05-02T03:28:55;16.00;91.70
35746;DHT22;21870;42.812;74.628;2023-05-02T03:31:21;16.00;91.30
35746;DHT22;21870;42.812;74.628;2023-05-02T03:33:48;16.10;90.30
35746;DHT22;21870;42.812;74.628;2023-05-02T03:36:15;16.20;91.70
35746;DHT22;21870;42.812;74.628;2023-05-02T03:38:47;16.20;90.90
35746;DHT22;21870;42.812;74.628;2023-05-02T03:41:23;16.40;92.10
35746;DHT22;21870;42.812;74.628;2023-05-02T03:43:53;16.70;91.30
35746;DHT22;21870;42.812;74.628;2023-05-02T03:46:20;16.90;91.30
35746;DHT22;21870;42.812;74.628;2023-05-02T03:48:46;17.10;91.00
35746;DHT22;21870;42.812;74.628;2023-05-02T03:51:12;17.20;91.20
35746;DHT22;21870;42.812;74.628;2023-05-02T03:53:38;17.30;90.90
35746;DHT22;21870;42.812;74.628;2023-05-02T03:56:05;17.30;89.80
35746;DHT22;21870;42.812;74.628;2023-05-02T03:58:33;17.20;89.40
35746;DHT22;21870;42.812;74.628;2023-05-02T04:01:00;17.10;90.00
35746;DHT22;21870;42.812;74.628;2023-05-02T04:03:27;17.20;90.60
35746;DHT22;21870;42.812;74.628;2023-05-02T04:05:53;17.20;90.70
35746;DHT22;21870;42.812;74.628;2023-05-02T04:08:19;17.40;91.10
35746;DHT22;21870;42.812;74.628;2023-05-02T04:10:45;17.40;91.20
35746;DHT22;21870;42.812;74.628;2023-05-02T04:13:11;17.30;92.00
35746;DHT22;21870;42.812;74.628;2023-05-02T04:15:37;17.10;92.10
35746;DHT22;21870;42.812;74.628;2023-05-02T04:18:03;17.10;91.70
35746;DHT22;21870;42.812;74.628;2023-05-02T04:20:30;17.10;92.30
35746;DHT22;21870;42.812;74.628;2023-05-02T04:22:56;17.20;92.00
35746;DHT22;21870;42.812;74.628;2023-05-02T04:25:22;17.00;91.20
35746;DHT22;21870;42.812;74.628;2023-05-02T04:27:48;16.90;91.60
35746;DHT22;21870;42.812;74.628;2023-05-02T04:30:14;16.70;90.90
35746;DHT22;21870;42.812;74.628;2023-05-02T04:32:40;16.80;90.70
35746;DHT22;21870;42.812;74.628;2023-05-02T04:35:07;16.90;90.30
35746;DHT22;21870;42.812;74.628;2023-05-02T04:37:34;17.30;90.00
35746;DHT22;21870;42.812;74.628;2023-05-02T04:40:01;17.50;88.80
35746;DHT22;21870;42.812;74.628;2023-05-02T04:42:28;17.50;88.50
35746;DHT22;21870;42.812;74.628;2023-05-02T04:44:54;17.70;87.80
35746;DHT22;21870;42.812;74.628;2023-05-02T04:47:20;17.80;89.50
35746;DHT22;21870;42.812;74.628;2023-05-02T04:49:46;18.00;88.00
35746;DHT22;21870;42.812;74.628;2023-05-02T04:52:12;18.00;89.00
35746;DHT22;21870;42.812;74.628;2023-05-02T04:54:39;17.90;88.30
35746;DHT22;21870;42.812;74.628;2023-05-02T04:57:05;18.00;89.40
35746;DHT22;21870;42.812;74.628;2023-05-02T04:59:32;18.20;90.10
35746;DHT22;21870;42.812;74.628;2023-05-02T05:01:59;18.30;88.20
35746;DHT22;21870;42.812;74.628;2023-05-02T05:04:25;18.50;87.30
35746;DHT22;21870;42.812;74.628;2023-05-02T05:06:52;18.70;87.00
35746;DHT22;21870;42.812;74.628;2023-05-02T05:09:19;18.60;88.90
35746;DHT22;21870;42.812;74.628;2023-05-02T05:11:45;18.80;86.80
35746;DHT22;21870;42.812;74.628;2023-05-02T05:14:11;18.80;86.80
35746;DHT22;21870;42.812;74.628;2023-05-02T05:16:37;18.80;86.00
35746;DHT22;21870;42.812;74.628;2023-05-02T05:19:04;18.70;86.30
35746;DHT22;21870;42.812;74.628;2023-05-02T05:21:30;18.80;86.60
35746;DHT22;21870;42.812;74.628;2023-05-02T05:23:56;18.90;85.90
35746;DHT22;21870;42.812;74.628;2023-05-02T05:26:22;19.20;84.70
35746;DHT22;21870;42.812;74.628;2023-05-02T05:28:51;19.20;85.40
35746;DHT22;21870;42.812;74.628;2023-05-02T05:31:19;19.20;85.40
35746;DHT22;21870;42.812;74.628;2023-05-02T05:33:48;19.30;85.70
35746;DHT22;21870;42.812;74.628;2023-05-02T05:36:14;19.50;85.40
35746;DHT22;21870;42.812;74.628;2023-05-02T05:38:40;19.50;84.50
35746;DHT22;21870;42.812;74.628;2023-05-02T05:41:06;19.60;83.70
35746;DHT22;21870;42.812;74.628;2023-05-02T05:43:33;19.60;83.50
35746;DHT22;21870;42.812;74.628;2023-05-02T05:45:59;19.60;82.80
35746;DHT22;21870;42.812;74.628;2023-05-02T05:48:26;19.70;84.70
35746;DHT22;21870;42.812;74.628;2023-05-02T05:50:52;19.70;84.20
35746;DHT22;21870;42.812;74.628;2023-05-02T05:53:18;19.80;84.60
35746;DHT22;21870;42.812;74.628;2023-05-02T05:55:44;19.70;84.20
35746;DHT22;21870;42.812;74.628;2023-05-02T05:58:11;19.80;83.70
35746;DHT22;21870;42.812;74.628;2023-05-02T06:00:38;19.90;82.60
35746;DHT22;21870;42.812;74.628;2023-05-02T06:03:05;20.10;83.20
35746;DHT22;21870;42.812;74.628;2023-05-02T06:05:34;20.40;83.20
35746;DHT22;21870;42.812;74.628;2023-05-02T06:08:00;20.40;81.90
35746;DHT22;21870;42.812;74.628;2023-05-02T06:10:26;20.40;80.80
35746;DHT22;21870;42.812;74.628;2023-05-02T06:12:52;20.50;81.10
35746;DHT22;21870;42.812;74.628;2023-05-02T06:15:18;20.40;80.70
35746;DHT22;21870;42.812;74.628;2023-05-02T06:17:44;20.30;81.20
35746;DHT22;21870;42.812;74.628;2023-05-02T06:20:11;20.40;81.80
35746;DHT22;21870;42.812;74.628;2023-05-02T06:22:37;20.40;82.70
35746;DHT22;21870;42.812;74.628;2023-05-02T06:25:04;20.50;81.00
35746;DHT22;21870;42.812;74.628;2023-05-02T06:27:31;20.40;79.00
35746;DHT22;21870;42.812;74.628;2023-05-02T06:29:57;20.50;79.60
35746;DHT22;21870;42.812;74.628;2023-05-02T06:32:23;20.60;80.50
35746;DHT22;21870;42.812;74.628;2023-05-02T06:34:51;20.60;80.60
35746;DHT22;21870;42.812;74.628;2023-05-02T06:37:17;20.90;79.30
35746;DHT22;21870;42.812;74.628;2023-05-02T06:39:43;21.00;79.20
35746;DHT22;21870;42.812;74.628;2023-05-02T06:42:09;20.90;78.40
35746;DHT22;21870;42.812;74.628;2023-05-02T06:44:35;21.00;80.80
35746;DHT22;21870;42.812;74.628;2023-05-02T06:47:03;21.20;81.20
35746;DHT22;21870;42.812;74.628;2023-05-02T06:49:30;21.50;79.20
35746;DHT22;21870;42.812;74.628;2023-05-02T06:51:56;21.50;76.50
35746;DHT22;21870;42.812;74.628;2023-05-02T06:54:22;21.60;77.10
35746;DHT22;21870;42.812;74.628;2023-05-02T06:56:48;21.50;77.30
35746;DHT22;21870;42.812;74.628;2023-05-02T06:59:14;21.30;75.40
35746;DHT22;21870;42.812;74.628;2023-05-02T07:01:43;21.10;77.60
35746;DHT22;21870;42.812;74.628;2023-05-02T07:04:09;21.30;77.40
35746;DHT22;21870;42.812;74.628;2023-05-02T07:06:36;21.50;75.40
35746;DHT22;21870;42.812;74.628;2023-05-02T07:09:02;21.70;78.10
35746;DHT22;21870;42.812;74.628;2023-05-02T07:11:28;21.70;76.10
35746;DHT22;21870;42.812;74.628;2023-05-02T07:13:54;21.90;76.30
35746;DHT22;21870;42.812;74.628;2023-05-02T07:16:20;21.90;73.80
35746;DHT22;21870;42.812;74.628;2023-05-02T07:18:46;21.90;73.70
35746;DHT22;21870;42.812;74.628;2023-05-02T07:21:12;21.80;75.00
35746;DHT22;21870;42.812;74.628;2023-05-02T07:23:39;22.00;74.60
35746;DHT22;21870;42.812;74.628;2023-05-02T07:26:05;22.10;75.60
35746;DHT22;21870;42.812;74.628;2023-05-02T07:28:31;22.00;73.80
35746;DHT22;21870;42.812;74.628;2023-05-02T07:30:58;22.30;74.60
35746;DHT22;21870;42.812;74.628;2023-05-02T07:33:24;22.50;73.30
35746;DHT22;21870;42.812;74.628;2023-05-02T07:35:50;22.60;73.40
35746;DHT22;21870;42.812;74.628;2023-05-02T07:38:16;22.70;74.10
35746;DHT22;21870;42.812;74.628;2023-05-02T07:40:42;22.80;75.10
35746;DHT22;21870;42.812;74.628;2023-05-02T07:43:09;22.80;71.80
35746;DHT22;21870;42.812;74.628;2023-05-02T07:45:35;22.70;72.40
35746;DHT22;21870;42.812;74.628;2023-05-02T07:48:01;22.40;72.00
35746;DHT22;21870;42.812;74.628;2023-05-02T07:50:28;22.60;73.50
35746;DHT22;21870;42.812;74.628;2023-05-02T07:52:55;22.80;73.50
35746;DHT22;21870;42.812;74.628;2023-05-02T07:55:21;22.90;71.50
35746;DHT22;21870;42.812;74.628;2023-05-02T07:57:47;22.90;71.70
35746;DHT22;21870;42.812;74.628;2023-05-02T08:00:13;22.50;73.40
35746;DHT22;21870;42.812;74.628;2023-05-02T08:02:41;22.60;73.70
35746;DHT22;21870;42.812;74.628;2023-05-02T08:05:07;22.60;75.00
35746;DHT22;21870;42.812;74.628;2023-05-02T08:07:33;22.60;75.90
35746;DHT22;21870;42.812;74.628;2023-05-02T08:10:04;22.40;74.30
35746;DHT22;21870;42.812;74.628;2023-05-02T08:12:30;22.60;73.50
35746;DHT22;21870;42.812;74.628;2023-05-02T08:14:56;22.70;73.00
35746;DHT22;21870;42.812;74.628;2023-05-02T08:17:22;22.70;71.10
35746;DHT22;21870;42.812;74.628;2023-05-02T08:19:48;22.60;72.10
35746;DHT22;21870;42.812;74.628;2023-05-02T08:22:14;22.70;71.80
35746;DHT22;21870;42.812;74.628;2023-05-02T08:24:40;22.70;72.10
35746;DHT22;21870;42.812;74.628;2023-05-02T08:27:07;22.70;73.00
35746;DHT22;21870;42.812;74.628;2023-05-02T08:29:33;22.60;73.30
35746;DHT22;21870;42.812;74.628;2023-05-02T08:31:59;22.50;74.30
35746;DHT22;21870;42.812;74.628;2023-05-02T08:34:25;22.60;74.50
35746;DHT22;21870;42.812;74.628;2023-05-02T08:36:51;22.70;73.70
35746;DHT22;21870;42.812;74.628;2023-05-02T08:39:23;23.00;74.10
35746;DHT22;21870;42.812;74.628;2023-05-02T08:41:49;23.10;73.40
35746;DHT22;21870;42.812;74.628;2023-05-02T08:44:16;23.10;73.40
35746;DHT22;21870;42.812;74.628;2023-05-02T08:46:43;23.10;73.80
35746;DHT22;21870;42.812;74.628;2023-05-02T08:49:10;23.10;73.00
35746;DHT22;21870;42.812;74.628;2023-05-02T08:51:37;23.10;73.20
35746;DHT22;21870;42.812;74.628;2023-05-02T08:54:03;23.20;72.80
35746;DHT22;21870;42.812;74.628;2023-05-02T08:56:32;23.10;74.10
35746;DHT22;21870;42.812;74.628;2023-05-02T08:58:58;23.20;71.80
35746;DHT22;21870;42.812;74.628;2023-05-02T09:01:29;23.00;72.50
35746;DHT22;21870;42.812;74.628;2023-05-02T09:03:56;23.10;72.90
35746;DHT22;21870;42.812;74.628;2023-05-02T09:06:25;23.20;73.20
35746;DHT22;21870;42.812;74.628;2023-05-02T09:08:52;23.40;72.10
35746;DHT22;21870;42.812;74.628;2023-05-02T09:11:18;23.40;72.10
35746;DHT22;21870;42.812;74.628;2023-05-02T09:13:50;23.40;72.40
35746;DHT22;21870;42.812;74.628;2023-05-02T09:16:22;23.50;72.20
35746;DHT22;21870;42.812;74.628;2023-05-02T09:18:56;23.40;72.60
35746;DHT22;21870;42.812;74.628;2023-05-02T09:21:24;23.50;72.90
35746;DHT22;21870;42.812;74.628;2023-05-02T09:23:56;23.50;72.80
35746;DHT22;21870;42.812;74.628;2023-05-02T09:26:28;23.50;72.10
35746;DHT22;21870;42.812;74.628;2023-05-02T09:28:57;23.50;73.40
35746;DHT22;21870;42.812;74.628;2023-05-02T09:31:36;23.40;73.60
35746;DHT22;21870;42.812;74.628;2023-05-02T09:34:14;23.50;73.80
35746;DHT22;21870;42.812;74.628;2023-05-02T09:36:43;23.50;74.60
35746;DHT22;21870;42.812;74.628;2023-05-02T09:39:15;23.50;73.80
35746;DHT22;21870;42.812;74.628;2023-05-02T09:41:41;23.40;72.10
35746;DHT22;21870;42.812;74.628;2023-05-02T09:44:15;23.50;71.80
35746;DHT22;21870;42.812;74.628;2023-05-02T09:46:45;23.70;71.40
35746;DHT22;21870;42.812;74.628;2023-05-02T09:49:12;23.40;71.80
35746;DHT22;21870;42.812;74.628;2023-05-02T09:51:39;23.50;72.10
35746;DHT22;21870;42.812;74.628;2023-05-02T09:54:06;23.40;71.50
35746;DHT22;21870;42.812;74.628;2023-05-02T09:56:51;23.30;72.70
35746;DHT22;21870;42.812;74.628;2023-05-02T09:59:17;23.20;72.40
35746;DHT22;21870;42.812;74.628;2023-05-02T10:01:44;23.30;73.50
35746;DHT22;21870;42.812;74.628;2023-05-02T10:04:13;23.50;72.40
35746;DHT22;21870;42.812;74.628;2023-05-02T10:06:44;23.60;73.00
35746;DHT22;21870;42.812;74.628;2023-05-02T10:09:14;23.60;72.20
35746;DHT22;21870;42.812;74.628;2023-05-02T10:11:44;23.70;70.90
35746;DHT22;21870;42.812;74.628;2023-05-02T10:14:11;23.60;70.70
35746;DHT22;21870;42.812;74.628;2023-05-02T10:16:51;23.40;70.60
35746;DHT22;21870;42.812;74.628;2023-05-02T10:19:37;23.10;71.20
35746;DHT22;21870;42.812;74.628;2023-05-02T10:22:04;23.00;71.60
35746;DHT22;21870;42.812;74.628;2023-05-02T10:24:31;22.90;72.20
35746;DHT22;21870;42.812;74.628;2023-05-02T10:26:58;22.50;72.80
35746;DHT22;21870;42.812;74.628;2023-05-02T10:29:28;22.50;73.10
35746;DHT22;21870;42.812;74.628;2023-05-02T10:31:57;22.40;73.50
35746;DHT22;21870;42.812;74.628;2023-05-02T10:34:26;22.40;72.80
35746;DHT22;21870;42.812;74.628;2023-05-02T10:36:54;22.50;73.20
35746;DHT22;21870;42.812;74.628;2023-05-02T10:39:21;22.50;72.10
35746;DHT22;21870;42.812;74.628;2023-05-02T10:41:52;22.60;71.50
35746;DHT22;21870;42.812;74.628;2023-05-02T10:44:38;22.60;71.70
35746;DHT22;21870;42.812;74.628;2023-05-02T10:47:24;22.60;71.00
35746;DHT22;21870;42.812;74.628;2023-05-02T10:49:55;22.60;71.80
35746;DHT22;21870;42.812;74.628;2023-05-02T10:52:37;22.50;70.50
35746;DHT22;21870;42.812;74.628;2023-05-02T10:55:21;22.50;70.70
35746;DHT22;21870;42.812;74.628;2023-05-02T11:00:30;22.50;69.90
35746;DHT22;21870;42.812;74.628;2023-05-02T11:02:57;22.50;70.20
35746;DHT22;21870;42.812;74.628;2023-05-02T11:05:24;22.10;70.20
35746;DHT22;21870;42.812;74.628;2023-05-02T11:10:43;21.70;71.60
35746;DHT22;21870;42.812;74.628;2023-05-02T11:13:11;21.80;71.20
35746;DHT22;21870;42.812;74.628;2023-05-02T11:18:10;21.90;70.80
35746;DHT22;21870;42.812;74.628;2023-05-02T11:20:44;22.00;70.30
35746;DHT22;21870;42.812;74.628;2023-05-02T11:25:57;21.90;69.60
35746;DHT22;21870;42.812;74.628;2023-05-02T11:28:45;21.90;69.60
35746;DHT22;21870;42.812;74.628;2023-05-02T11:33:57;21.70;71.00
35746;DHT22;21870;42.812;74.628;2023-05-02T11:36:28;21.50;71.40
35746;DHT22;21870;42.812;74.628;2023-05-02T11:38:54;21.30;72.10
35746;DHT22;21870;42.812;74.628;2023-05-02T11:41:20;21.40;71.70
35746;DHT22;21870;42.812;74.628;2023-05-02T11:43:46;21.20;71.30
35746;DHT22;21870;42.812;74.628;2023-05-02T11:46:13;21.20;69.20
35746;DHT22;21870;42.812;74.628;2023-05-02T11:48:40;21.10;69.00
35746;DHT22;21870;42.812;74.628;2023-05-02T11:51:06;21.00;69.70
35746;DHT22;21870;42.812;74.628;2023-05-02T11:53:32;21.10;69.20
35746;DHT22;21870;42.812;74.628;2023-05-02T11:56:01;21.10;70.20
35746;DHT22;21870;42.812;74.628;2023-05-02T11:58:30;21.00;71.30
35746;DHT22;21870;42.812;74.628;2023-05-02T12:01:10;20.90;71.70
35746;DHT22;21870;42.812;74.628;2023-05-02T12:03:37;20.70;71.70
35746;DHT22;21870;42.812;74.628;2023-05-02T12:06:14;20.50;72.10
35746;DHT22;21870;42.812;74.628;2023-05-02T12:08:43;20.30;72.90
35746;DHT22;21870;42.812;74.628;2023-05-02T12:11:13;20.20;73.20
35746;DHT22;21870;42.812;74.628;2023-05-02T12:13:45;20.30;72.50
35746;DHT22;21870;42.812;74.628;2023-05-02T12:16:11;20.30;72.50
35746;DHT22;21870;42.812;74.628;2023-05-02T12:18:38;20.00;71.90
35746;DHT22;21870;42.812;74.628;2023-05-02T12:21:04;19.80;72.00
35746;DHT22;21870;42.812;74.628;2023-05-02T12:23:31;19.60;71.90
35746;DHT22;21870;42.812;74.628;2023-05-02T12:25:57;19.60;72.70
35746;DHT22;21870;42.812;74.628;2023-05-02T12:28:24;19.60;72.50
35746;DHT22;21870;42.812;74.628;2023-05-02T12:30:50;19.40;73.30
35746;DHT22;21870;42.812;74.628;2023-05-02T12:33:17;19.40;73.40
35746;DHT22;21870;42.812;74.628;2023-05-02T12:35:44;19.40;73.40
35746;DHT22;21870;42.812;74.628;2023-05-02T12:38:18;19.40;73.80
35746;DHT22;21870;42.812;74.628;2023-05-02T12:40:52;19.30;74.00
35746;DHT22;21870;42.812;74.628;2023-05-02T12:43:19;19.30;74.70
35746;DHT22;21870;42.812;74.628;2023-05-02T12:45:46;19.20;74.80
35746;DHT22;21870;42.812;74.628;2023-05-02T12:48:26;19.20;74.30
35746;DHT22;21870;42.812;74.628;2023-05-02T12:50:53;19.10;73.90
35746;DHT22;21870;42.812;74.628;2023-05-02T12:53:39;19.10;74.70
35746;DHT22;21870;42.812;74.628;2023-05-02T12:56:06;19.00;75.70
35746;DHT22;21870;42.812;74.628;2023-05-02T12:58:48;19.00;76.10
35746;DHT22;21870;42.812;74.628;2023-05-02T13:01:15;18.90;76.40
35746;DHT22;21870;42.812;74.628;2023-05-02T13:03:42;18.70;76.40
35746;DHT22;21870;42.812;74.628;2023-05-02T13:06:09;18.60;75.90
35746;DHT22;21870;42.812;74.628;2023-05-02T13:08:35;18.50;76.30
35746;DHT22;21870;42.812;74.628;2023-05-02T13:11:03;18.40;76.30
35746;DHT22;21870;42.812;74.628;2023-05-02T13:13:29;18.30;76.40
35746;DHT22;21870;42.812;74.628;2023-05-02T13:15:57;18.30;76.60
35746;DHT22;21870;42.812;74.628;2023-05-02T13:18:23;18.30;76.40
35746;DHT22;21870;42.812;74.628;2023-05-02T13:20:50;18.30;76.50
35746;DHT22;21870;42.812;74.628;2023-05-02T13:23:16;18.20;76.90
35746;DHT22;21870;42.812;74.628;2023-05-02T13:25:42;18.30;76.90
35746;DHT22;21870;42.812;74.628;2023-05-02T13:28:08;18.20;77.00
35746;DHT22;21870;42.812;74.628;2023-05-02T13:30:34;18.10;78.70
35746;DHT22;21870;42.812;74.628;2023-05-02T13:33:00;18.10;77.90
35746;DHT22;21870;42.812;74.628;2023-05-02T13:35:26;18.10;78.40
35746;DHT22;21870;42.812;74.628;2023-05-02T13:37:52;18.00;78.60
35746;DHT22;21870;42.812;74.628;2023-05-02T13:40:18;17.90;78.90
35746;DHT22;21870;42.812;74.628;2023-05-02T13:42:45;17.80;79.00
35746;DHT22;21870;42.812;74.628;2023-05-02T13:45:11;17.80;79.00
35746;DHT22;21870;42.812;74.628;2023-05-02T13:47:37;17.70;78.40
35746;DHT22;21870;42.812;74.628;2023-05-02T13:50:04;17.70;79.00
35746;DHT22;21870;42.812;74.628;2023-05-02T13:52:30;17.50;78.50
35746;DHT22;21870;42.812;74.628;2023-05-02T13:54:56;17.50;78.40
35746;DHT22;21870;42.812;74.628;2023-05-02T13:57:22;17.40;78.60
35746;DHT22;21870;42.812;74.628;2023-05-02T13:59:48;17.40;78.40
35746;DHT22;21870;42.812;74.628;2023-05-02T14:02:14;17.30;79.00
35746;DHT22;21870;42.812;74.628;2023-05-02T14:04:40;17.30;79.00
35746;DHT22;21870;42.812;74.628;2023-05-02T14:07:06;17.30;79.20
35746;DHT22;21870;42.812;74.628;2023-05-02T14:09:32;17.30;79.30
35746;DHT22;21870;42.812;74.628;2023-05-02T14:11:58;17.30;79.00
35746;DHT22;21870;42.812;74.628;2023-05-02T14:14:25;17.30;78.90
35746;DHT22;21870;42.812;74.628;2023-05-02T14:16:51;17.20;79.30
35746;DHT22;21870;42.812;74.628;2023-05-02T14:19:17;17.20;79.70
35746;DHT22;21870;42.812;74.628;2023-05-02T14:21:43;17.00;80.80
35746;DHT22;21870;42.812;74.628;2023-05-02T14:24:09;17.10;81.80
35746;DHT22;21870;42.812;74.628;2023-05-02T14:26:37;17.00;82.60
35746;DHT22;21870;42.812;74.628;2023-05-02T14:29:03;17.00;83.20
35746;DHT22;21870;42.812;74.628;2023-05-02T14:31:29;17.10;83.60
35746;DHT22;21870;42.812;74.628;2023-05-02T14:33:55;16.90;83.90
35746;DHT22;21870;42.812;74.628;2023-05-02T14:36:21;16.90;84.60
35746;DHT22;21870;42.812;74.628;2023-05-02T14:38:47;16.80;85.30
35746;DHT22;21870;42.812;74.628;2023-05-02T14:41:13;16.70;85.80
35746;DHT22;21870;42.812;74.628;2023-05-02T14:43:39;16.60;86.30
35746;DHT22;21870;42.812;74.628;2023-05-02T14:46:06;16.60;86.90
35746;DHT22;21870;42.812;74.628;2023-05-02T14:48:32;16.50;87.50
35746;DHT22;21870;42.812;74.628;2023-05-02T14:50:58;16.40;87.80
35746;DHT22;21870;42.812;74.628;2023-05-02T14:53:27;16.30;87.90
35746;DHT22;21870;42.812;74.628;2023-05-02T14:55:53;16.20;88.40
35746;DHT22;21870;42.812;74.628;2023-05-02T14:58:19;16.20;88.30
35746;DHT22;21870;42.812;74.628;2023-05-02T15:00:46;16.20;88.40
35746;DHT22;21870;42.812;74.628;2023-05-02T15:03:12;16.10;88.40
35746;DHT22;21870;42.812;74.628;2023-05-02T15:05:39;16.00;87.50
35746;DHT22;21870;42.812;74.628;2023-05-02T15:08:05;16.00;86.90
35746;DHT22;21870;42.812;74.628;2023-05-02T15:10:38;16.00;86.50
35746;DHT22;21870;42.812;74.628;2023-05-02T15:13:07;15.90;85.90
35746;DHT22;21870;42.812;74.628;2023-05-02T15:15:33;15.80;86.00
35746;DHT22;21870;42.812;74.628;2023-05-02T15:18:03;15.80;86.40
35746;DHT22;21870;42.812;74.628;2023-05-02T15:20:29;15.60;86.10
35746;DHT22;21870;42.812;74.628;2023-05-02T15:22:55;15.60;85.40
35746;DHT22;21870;42.812;74.628;2023-05-02T15:25:23;15.60;85.30
35746;DHT22;21870;42.812;74.628;2023-05-02T15:27:49;15.60;84.60
35746;DHT22;21870;42.812;74.628;2023-05-02T15:30:15;15.60;84.50
35746;DHT22;21870;42.812;74.628;2023-05-02T15:32:41;15.50;84.80
35746;DHT22;21870;42.812;74.628;2023-05-02T15:35:07;15.50;83.20
35746;DHT22;21870;42.812;74.628;2023-05-02T15:37:34;15.50;83.10
35746;DHT22;21870;42.812;74.628;2023-05-02T15:40:00;15.40;82.80
35746;DHT22;21870;42.812;74.628;2023-05-02T15:42:28;15.30;82.50
35746;DHT22;21870;42.812;74.628;2023-05-02T15:44:54;15.30;82.80
35746;DHT22;21870;42.812;74.628;2023-05-02T15:47:20;15.30;82.80
35746;DHT22;21870;42.812;74.628;2023-05-02T15:49:46;15.20;82.40
35746;DHT22;21870;42.812;74.628;2023-05-02T15:52:16;15.20;82.90
35746;DHT22;21870;42.812;74.628;2023-05-02T15:54:42;15.20;83.10
35746;DHT22;21870;42.812;74.628;2023-05-02T15:57:08;15.10;82.80
35746;DHT22;21870;42.812;74.628;2023-05-02T15:59:37;15.20;83.40